Time;durP1;ratioP1;P1;durP2;ratioP2;P2;SDS_P1;SDS_P2;PMS_P1;PMS_P2;Temp;Humidity;BMP_temperature;BMP_pressure;BME280_temperature;BME280_humidity;BME280_pressure;Samples;Min_cycle;Max_cycle;Signal;HPM_P1;HPM_P2
2023/08/17 00:04:45;;;;;;;0.10;0.10;;;;;;;;;;10319585;28;20105;-68
2023/08/17 00:09:45;;;;;;;0.10;0.10;;;;;;;;;;10323237;28;20326;-67
2023/08/17 00:14:46;;;;;;;0.10;0.10;;;;;;;;;;10322366;28;20010;-67
2023/08/17 00:19:46;;;;;;;0.10;0.10;;;;;;;;;;10322309;28;20105;-68
2023/08/17 00:24:47;;;;;;;0.10;0.10;;;;;;;;;;10322769;28;20032;-68
2023/08/17 00:29:47;;;;;;;0.10;0.10;;;;;;;;;;10323893;28;20033;-68
2023/08/17 00:34:47;;;;;;;0.10;0.10;;;;;;;;;;10330666;28;20041;-69
2023/08/17 00:39:47;;;;;;;0.10;0.10;;;;;;;;;;10330524;28;20037;-68
2023/08/17 00:44:47;;;;;;;0.10;0.10;;;;;;;;;;10330293;28;20026;-68
2023/08/17 00:49:48;;;;;;;0.10;0.10;;;;;;;;;;10330084;28;20031;-68
2023/08/17 00:54:48;;;;;;;0.10;0.10;;;;;;;;;;10329716;28;20035;-68
2023/08/17 00:59:49;;;;;;;0.10;0.10;;;;;;;;;;10327804;28;20770;-68
2023/08/17 01:04:49;;;;;;;0.10;0.10;;;;;;;;;;10329437;28;20501;-67
2023/08/17 01:09:50;;;;;;;0.10;0.10;;;;;;;;;;10330709;28;20308;-67
2023/08/17 01:14:50;;;;;;;0.10;0.10;;;;;;;;;;10329434;28;20732;-67
2023/08/17 01:19:51;;;;;;;0.10;0.10;;;;;;;;;;10329214;28;20029;-67
2023/08/17 01:24:57;;;;;;;0.10;0.10;;;;;;;;;;10328971;28;20069;-67
2023/08/17 01:29:57;;;;;;;0.10;0.10;;;;;;;;;;10321786;28;20029;-67
2023/08/17 01:35:01;;;;;;;0.00;0.00;;;;;;;;;;10328566;28;20406;-67
2023/08/17 01:40:02;;;;;;;0.10;0.10;;;;;;;;;;10328033;28;20025;-67
2023/08/17 01:45:02;;;;;;;0.10;0.10;;;;;;;;;;10327519;28;20561;-67
2023/08/17 01:50:02;;;;;;;0.10;0.10;;;;;;;;;;10328283;28;20022;-67
2023/08/17 01:55:03;;;;;;;0.10;0.10;;;;;;;;;;10327680;28;20124;-67
2023/08/17 02:00:07;;;;;;;0.10;0.10;;;;;;;;;;10321710;28;20394;-67
2023/08/17 02:05:07;;;;;;;0.10;0.10;;;;;;;;;;10327277;28;20050;-67
2023/08/17 02:10:08;;;;;;;0.10;0.10;;;;;;;;;;10327214;28;20054;-67
2023/08/17 02:15:08;;;;;;;0.10;0.10;;;;;;;;;;10326926;28;20014;-67
2023/08/17 02:20:09;;;;;;;0.10;0.10;;;;;;;;;;10327037;28;20031;-68
2023/08/17 02:25:09;;;;;;;0.00;0.00;;;;;;;;;;10325508;28;20026;-67
2023/08/17 02:30:09;;;;;;;0.10;0.10;;;;;;;;;;10323916;28;20014;-68
2023/08/17 02:35:10;;;;;;;0.10;0.10;;;;;;;;;;10326309;28;20427;-67
2023/08/17 02:40:10;;;;;;;0.10;0.10;;;;;;;;;;10325506;28;21266;-67
2023/08/17 02:45:10;;;;;;;0.10;0.10;;;;;;;;;;10326027;28;20293;-68
2023/08/17 02:50:11;;;;;;;0.10;0.10;;;;;;;;;;10325553;28;20597;-67
2023/08/17 02:55:11;;;;;;;0.03;0.03;;;;;;;;;;10324318;28;20101;-67
2023/08/17 03:00:11;;;;;;;0.00;0.00;;;;;;;;;;10325046;28;20768;-68
2023/08/17 03:05:12;;;;;;;0.10;0.10;;;;;;;;;;10322167;28;20433;-67
2023/08/17 03:10:12;;;;;;;0.10;0.10;;;;;;;;;;10324823;28;20465;-67
2023/08/17 03:15:12;;;;;;;0.10;0.10;;;;;;;;;;10324515;28;20105;-67
2023/08/17 03:20:12;;;;;;;0.05;0.05;;;;;;;;;;10324549;28;20045;-68
2023/08/17 03:25:12;;;;;;;0.10;0.10;;;;;;;;;;10324007;28;20045;-68
2023/08/17 03:30:13;;;;;;;0.10;0.10;;;;;;;;;;10323197;28;20011;-68
2023/08/17 03:35:13;;;;;;;0.10;0.10;;;;;;;;;;10321571;28;20417;-67
2023/08/17 03:40:13;;;;;;;0.10;0.10;;;;;;;;;;10323729;28;20031;-66
2023/08/17 03:45:13;;;;;;;0.10;0.10;;;;;;;;;;10322459;28;20030;-69
2023/08/17 03:50:13;;;;;;;0.10;0.10;;;;;;;;;;10323526;28;20350;-69
2023/08/17 03:55:14;;;;;;;0.10;0.10;;;;;;;;;;10322762;28;20018;-67
2023/08/17 04:00:14;;;;;;;0.00;0.00;;;;;;;;;;10323495;28;20026;-67
2023/08/17 04:05:14;;;;;;;0.10;0.10;;;;;;;;;;10322680;28;20018;-66
2023/08/17 04:10:14;;;;;;;0.10;0.10;;;;;;;;;;10322930;28;20080;-66
2023/08/17 04:15:14;;;;;;;0.10;0.10;;;;;;;;;;10321303;28;20034;-68
2023/08/17 04:20:15;;;;;;;0.10;0.10;;;;;;;;;;10323103;28;20023;-66
2023/08/17 04:25:15;;;;;;;0.07;0.07;;;;;;;;;;10322204;28;20018;-68
2023/08/17 04:30:15;;;;;;;0.00;0.00;;;;;;;;;;10320263;28;20045;-67
2023/08/17 04:35:15;;;;;;;0.10;0.10;;;;;;;;;;10323064;28;20018;-68
2023/08/17 04:40:16;;;;;;;0.10;0.10;;;;;;;;;;10323754;28;20018;-68
2023/08/17 04:45:16;;;;;;;0.10;0.10;;;;;;;;;;10323086;28;20426;-69
2023/08/17 04:50:16;;;;;;;0.10;0.10;;;;;;;;;;10323538;28;20021;-68
2023/08/17 04:55:16;;;;;;;0.10;0.10;;;;;;;;;;10323742;28;20018;-67
2023/08/17 05:00:17;;;;;;;0.10;0.10;;;;;;;;;;10321858;28;20053;-69
2023/08/17 05:05:17;;;;;;;0.13;0.13;;;;;;;;;;10338155;28;20041;-69
2023/08/17 05:10:18;;;;;;;0.00;0.00;;;;;;;;;;10338479;28;20026;-69
2023/08/17 05:15:18;;;;;;;0.10;0.10;;;;;;;;;;10324000;28;20244;-69
2023/08/17 05:20:20;;;;;;;0.08;0.08;;;;;;;;;;10330377;28;20285;-69
2023/08/17 05:25:21;;;;;;;0.10;0.10;;;;;;;;;;10329446;28;20105;-69
2023/08/17 05:30:21;;;;;;;0.10;0.10;;;;;;;;;;10329600;28;20657;-69
2023/08/17 05:35:22;;;;;;;0.10;0.10;;;;;;;;;;10329328;28;20133;-69
2023/08/17 05:40:22;;;;;;;0.10;0.10;;;;;;;;;;10329248;28;20026;-69
2023/08/17 05:45:22;;;;;;;0.10;0.10;;;;;;;;;;10329719;28;20354;-71
2023/08/17 05:50:22;;;;;;;0.10;0.10;;;;;;;;;;10328982;28;20019;-70
2023/08/17 05:55:22;;;;;;;0.10;0.10;;;;;;;;;;10328643;28;20236;-70
2023/08/17 06:00:23;;;;;;;0.10;0.10;;;;;;;;;;10325710;28;20034;-71
2023/08/17 06:05:25;;;;;;;0.03;0.03;;;;;;;;;;10327143;28;20014;-68
2023/08/17 06:10:26;;;;;;;0.10;0.10;;;;;;;;;;10328082;28;20046;-68
2023/08/17 06:15:26;;;;;;;0.10;0.10;;;;;;;;;;10327558;28;20046;-68
2023/08/17 06:20:26;;;;;;;0.10;0.10;;;;;;;;;;10327770;28;20512;-68
2023/08/17 06:25:27;;;;;;;0.08;0.08;;;;;;;;;;10326383;28;20029;-68
2023/08/17 06:30:27;;;;;;;0.10;0.10;;;;;;;;;;10325129;28;20024;-68
2023/08/17 06:35:27;;;;;;;0.10;0.10;;;;;;;;;;10326998;28;20324;-68
2023/08/17 06:51:39;;;;;;;0.00;0.00;;;;;;;-145.06;100.00;39842.56;10448258;23;20432;-71
2023/08/17 06:56:39;;;;;;;0.03;0.03;;;;;;;-145.06;100.00;39816.31;10484149;28;20025;-71
2023/08/17 07:22:28;;;;;;;0.00;0.00;;;;;;;-145.06;100.00;39765.88;10605599;27;20390;-68
2023/08/17 07:27:28;;;;;;;0.10;0.10;;;;;;;-145.06;100.00;39800.19;10590920;22;20446;-68
2023/08/17 07:32:29;;;;;;;0.10;0.10;;;;;;;-145.06;100.00;39731.56;10461349;28;20033;-67
2023/08/17 07:37:33;;;;;;;0.10;0.10;;;;;;;-145.06;100.00;39769.91;10458725;28;20748;-67
2023/08/17 07:42:33;;;;;;;;;;;;;;;-145.06;100.00;39777.97;10458634;28;20744;-67
2023/08/17 07:47:36;;;;;;;0.00;0.00;;;;;;;-145.06;100.00;39802.19;10477093;28;19921;-67
2023/08/17 07:52:36;;;;;;;0.10;0.10;;;;;;;-145.06;100.00;39765.88;10457655;28;20017;-67
2023/08/17 07:57:37;;;;;;;0.00;0.00;;;;;;;-145.06;100.00;39771.94;10475042;28;20021;-67
2023/08/17 08:02:37;;;;;;;0.10;0.10;;;;;;;-145.06;100.00;39814.31;10469622;28;20021;-68
2023/08/17 08:07:37;;;;;;;0.10;0.10;;;;;;;-145.06;100.00;39773.94;10459191;28;20025;-68
2023/08/17 08:12:37;;;;;;;0.10;0.10;;;;;;;-145.06;100.00;39784.03;10445596;28;20035;-69
2023/08/17 08:17:38;;;;;;;0.10;0.10;;;;;;;-145.06;100.00;39763.84;10467903;28;20036;-69
2023/08/17 08:22:38;;;;;;;0.10;0.10;;;;;;;-145.06;100.00;39769.91;10426932;28;20028;-69
2023/08/17 08:27:38;;;;;;;0.10;0.10;;;;;;;-145.06;100.00;39725.50;10433829;28;20020;-71
2023/08/17 08:32:39;;;;;;;0.10;0.10;;;;;;;-145.06;100.00;39737.63;10428794;28;20347;-70
2023/08/17 08:37:39;;;;;;;0.10;0.10;;;;;;;-145.06;100.00;39725.50;10444629;28;20441;-70
2023/08/17 08:42:39;;;;;;;0.10;0.10;;;;;;;-145.06;100.00;39759.81;10434248;28;20021;-70
2023/08/17 08:47:44;;;;;;;0.10;0.10;;;;;;;-145.06;100.00;39773.94;10453197;28;20017;-71
2023/08/17 08:52:59;;;;;;;0.10;0.10;;;;;;;-145.06;100.00;39745.69;10425997;28;20031;-70
2023/08/17 08:58:00;;;;;;;0.10;0.10;;;;;;;-145.06;100.00;39624.63;10440088;28;20016;-70
2023/08/17 09:03:03;;;;;;;0.10;0.10;;;;;;;-145.06;100.00;39564.09;10444191;28;20021;-68
2023/08/17 09:08:06;;;;;;;0.00;0.00;;;;;;;-145.06;100.00;39584.25;10442491;28;20041;-69
2023/08/17 09:13:06;;;;;;;0.10;0.10;;;;;;;-145.06;100.00;39535.84;10420153;28;20362;-68
2023/08/17 09:18:09;;;;;;;0.10;0.10;;;;;;;-145.06;100.00;39549.97;10445960;28;20025;-68
2023/08/17 09:23:19;;;;;;;0.10;0.10;;;;;;;-145.06;100.00;39517.69;10430640;28;20021;-68
2023/08/17 09:28:20;;;;;;;0.10;0.10;;;;;;;-145.06;100.00;39527.75;10426445;28;20278;-68
2023/08/17 09:33:24;;;;;;;0.10;0.10;;;;;;;-145.06;100.00;39489.44;10441607;28;20029;-68
2023/08/17 09:38:26;;;;;;;0.00;0.00;;;;;;;-145.06;100.00;39564.09;10446367;28;20030;-67
2023/08/17 09:43:30;;;;;;;0.10;0.10;;;;;;;-145.06;100.00;39556.00;10442452;28;20025;-67
2023/08/17 09:48:31;;;;;;;0.10;0.10;;;;;;;-145.06;100.00;39535.84;10424880;28;20236;-67
2023/08/17 09:53:35;;;;;;;0.10;0.10;;;;;;;-145.06;100.00;39495.47;10446419;28;20031;-67
2023/08/17 09:58:39;;;;;;;0.10;0.10;;;;;;;-145.06;100.00;39465.22;10433513;28;20500;-67
2023/08/17 10:03:43;;;;;;;0.00;0.00;;;;;;;-145.06;100.00;39459.16;10432871;28;20021;-68
2023/08/17 10:08:46;;;;;;;0.10;0.10;;;;;;;-145.06;100.00;39447.06;10436323;28;20403;-66
2023/08/17 10:14:02;;;;;;;0.10;0.10;;;;;;;-145.06;100.00;39455.13;10439409;28;20024;-67
2023/08/17 10:19:18;;;;;;;0.10;0.10;;;;;;;-145.06;100.00;39449.06;10431675;28;20397;-66
2023/08/17 10:24:19;;;;;;;0.10;0.10;;;;;;;-145.06;100.00;39428.91;10417566;28;20564;-66
2023/08/17 10:29:21;;;;;;;0.00;0.00;;;;;;;-145.06;100.00;39428.91;10413611;28;20109;-66
2023/08/17 10:34:22;;;;;;;0.10;0.10;;;;;;;-145.06;100.00;39414.78;10437323;28;20405;-66
2023/08/17 10:39:29;;;;;;;0.10;0.10;;;;;;;-145.06;100.00;39396.59;10403961;28;20060;-66
2023/08/17 10:44:47;;;;;;;0.00;0.00;;;;;;;-145.06;100.00;39402.66;10425011;28;20074;-66
2023/08/17 10:50:04;;;;;;;0.08;0.08;;;;;;;-145.06;100.00;39394.59;10451283;28;20017;-68
2023/08/17 10:55:12;;;;;;;0.10;0.10;;;;;;;-145.06;100.00;39386.53;10433474;28;20496;-67
2023/08/17 11:00:42;;;;;;;0.10;0.10;;;;;;;-145.06;100.00;39402.66;10443590;28;20028;-67
2023/08/17 11:05:55;;;;;;;0.10;0.10;;;;;;;-145.06;100.00;39412.75;10423380;28;20550;-66
2023/08/17 11:11:02;;;;;;;0.10;0.10;;;;;;;-145.06;100.00;39410.72;10433519;28;20252;-67
2023/08/17 11:16:04;;;;;;;0.00;0.00;;;;;;;-145.06;100.00;39418.81;10428103;28;20446;-66
2023/08/17 11:21:06;;;;;;;0.10;0.10;;;;;;;-145.06;100.00;39366.34;10429428;28;20244;-68
2023/08/17 11:26:07;;;;;;;0.10;0.10;;;;;;;-145.06;100.00;39414.78;10421770;28;20484;-68
2023/08/17 11:31:12;;;;;;;0.00;0.00;;;;;;;-145.06;100.00;39418.81;10413937;28;20023;-68
2023/08/17 11:36:13;;;;;;;0.00;0.00;;;;;;;-145.06;100.00;39424.84;10442850;28;20473;-68
2023/08/17 11:41:15;;;;;;;0.10;0.10;;;;;;;-145.06;100.00;39414.78;10429762;28;20035;-68
2023/08/17 11:46:16;;;;;;;0.00;0.00;;;;;;;-145.06;100.00;39388.53;10431560;28;20321;-67
2023/08/17 11:51:28;;;;;;;0.10;0.10;;;;;;;-145.06;100.00;39378.44;10431852;28;20017;-68
2023/08/17 11:56:29;;;;;;;0.10;0.10;;;;;;;-145.06;100.00;39406.69;10409539;28;20120;-67
2023/08/17 12:01:32;;;;;;;0.10;0.10;;;;;;;-145.06;100.00;39493.47;10429445;28;20120;-68
2023/08/17 12:06:33;;;;;;;0.10;0.10;;;;;;;-145.06;100.00;39515.66;10436150;28;20020;-68
2023/08/17 12:11:34;;;;;;;0.10;0.10;;;;;;;-145.06;100.00;39511.63;10440056;28;20446;-67
2023/08/17 12:16:44;;;;;;;0.10;0.10;;;;;;;-145.06;100.00;39483.38;10445254;28;20012;-67
2023/08/17 12:21:45;;;;;;;0.10;0.10;;;;;;;-145.06;100.00;39434.94;10429345;28;20071;-67
2023/08/17 12:26:46;;;;;;;0.00;0.00;;;;;;;-145.06;100.00;39443.03;10436818;28;20024;-67
2023/08/17 12:31:47;;;;;;;0.10;0.10;;;;;;;-145.06;100.00;39406.69;10412005;28;20368;-67
2023/08/17 12:36:49;;;;;;;0.10;0.10;;;;;;;-145.06;100.00;39455.13;10438243;28;20035;-68
2023/08/17 12:41:49;;;;;;;0.00;0.00;;;;;;;-145.06;100.00;39422.84;10437910;28;20051;-67
2023/08/17 12:46:49;;;;;;;0.10;0.10;;;;;;;-145.06;100.00;39412.75;10433327;28;20048;-67
2023/08/17 12:51:50;;;;;;;0.10;0.10;;;;;;;-145.06;100.00;39402.66;10409777;28;20029;-66
2023/08/17 12:56:50;;;;;;;0.10;0.10;;;;;;;-145.06;100.00;39392.56;10422173;28;20386;-66
2023/08/17 13:01:50;;;;;;;0.10;0.10;;;;;;;-145.06;100.00;39394.59;10430136;28;20024;-65
2023/08/17 13:06:51;;;;;;;0.00;0.00;;;;;;;-145.06;100.00;39410.72;10435161;28;20025;-67
2023/08/17 13:11:51;;;;;;;0.00;0.00;;;;;;;-145.06;100.00;39400.66;10444660;28;20030;-68
2023/08/17 13:16:51;;;;;;;0.00;0.00;;;;;;;-145.06;100.00;39390.56;10426494;28;20070;-68
2023/08/17 13:21:52;;;;;;;0.00;0.00;;;;;;;-145.06;100.00;39430.91;10442404;28;20466;-68
2023/08/17 13:26:53;;;;;;;0.10;0.10;;;;;;;-145.06;100.00;39463.19;10438053;28;20069;-67
2023/08/17 13:31:54;;;;;;;0.10;0.10;;;;;;;-145.06;100.00;39523.72;10420036;28;20431;-66
2023/08/17 13:36:54;;;;;;;0.10;0.10;;;;;;;-145.06;100.00;39511.63;10439093;28;20070;-67
2023/08/17 13:41:54;;;;;;;0.10;0.10;;;;;;;-145.06;100.00;39543.91;10441895;28;20874;-67
2023/08/17 13:46:55;;;;;;;0.10;0.10;;;;;;;-145.06;100.00;39523.72;10448404;28;20025;-67
2023/08/17 13:51:56;;;;;;;0.00;0.00;;;;;;;-145.06;100.00;39568.13;10441547;28;20013;-67
2023/08/17 13:56:56;;;;;;;0.10;0.10;;;;;;;-145.06;100.00;39600.41;10414583;28;20078;-67
2023/08/17 14:01:57;;;;;;;0.10;0.10;;;;;;;-145.06;100.00;39572.16;10438450;28;20025;-65
2023/08/17 14:06:57;;;;;;;0.00;0.00;;;;;;;-145.06;100.00;39602.44;10445176;28;20044;-66
2023/08/17 14:11:57;;;;;;;0.10;0.10;;;;;;;-145.06;100.00;39624.63;10440722;28;20262;-66
2023/08/17 14:16:57;;;;;;;0.10;0.10;;;;;;;-145.06;100.00;39616.56;10444848;28;20390;-67
2023/08/17 14:22:00;;;;;;;0.10;0.10;;;;;;;-145.06;100.00;39582.25;10433945;28;20020;-66
2023/08/17 14:27:01;;;;;;;0.10;0.10;;;;;;;-145.06;100.00;39590.31;10424819;28;20549;-67
2023/08/17 14:32:01;;;;;;;0.10;0.10;;;;;;;-145.06;100.00;39578.22;10412567;28;20131;-68
2023/08/17 14:37:01;;;;;;;0.10;0.10;;;;;;;-145.06;100.00;39636.72;10441346;28;20430;-66
2023/08/17 14:42:02;;;;;;;0.10;0.10;;;;;;;-145.06;100.00;39705.34;10432891;28;20515;-67
2023/08/17 14:47:02;;;;;;;0.10;0.10;;;;;;;-145.06;100.00;39727.53;10432564;28;20389;-67
2023/08/17 14:52:03;;;;;;;0.10;0.10;;;;;;;-145.06;100.00;39777.97;10439232;28;20244;-66
2023/08/17 14:57:03;;;;;;;0.10;0.10;;;;;;;-145.06;100.00;39769.91;10440689;28;20290;-67
2023/08/17 15:02:04;;;;;;;0.00;0.00;;;;;;;-145.06;100.00;39775.97;10440248;28;20361;-67
2023/08/17 15:07:10;;;;;;;0.10;0.10;;;;;;;-145.06;100.00;39773.94;10443244;28;20127;-67
2023/08/17 15:12:10;;;;;;;0.10;0.10;;;;;;;-145.06;100.00;39800.19;10426291;28;21093;-68
2023/08/17 15:17:12;;;;;;;0.00;0.00;;;;;;;-145.06;100.00;39804.22;10440654;28;20446;-67
2023/08/17 15:22:12;;;;;;;0.10;0.10;;;;;;;-145.06;100.00;39832.47;10430264;28;20068;-67
2023/08/17 15:27:13;;;;;;;0.10;0.10;;;;;;;-145.06;100.00;39834.47;10418556;28;20031;-67
2023/08/17 15:32:13;;;;;;;0.10;0.10;;;;;;;-145.06;100.00;39836.50;10449687;28;20021;-66
2023/08/17 15:37:13;;;;;;;0.10;0.10;;;;;;;-145.06;100.00;39836.50;10438620;28;20470;-65
2023/08/17 15:42:14;;;;;;;0.10;0.10;;;;;;;-145.06;100.00;39832.47;10431091;28;20030;-65
2023/08/17 15:47:14;;;;;;;0.10;0.10;;;;;;;-145.06;100.00;39834.47;10424776;28;20022;-65
2023/08/17 15:52:15;;;;;;;0.10;0.10;;;;;;;-145.06;100.00;39810.28;10430686;28;20442;-66
2023/08/17 15:57:15;;;;;;;0.10;0.10;;;;;;;-145.06;100.00;39820.34;10437641;28;20117;-66
2023/08/17 16:02:17;;;;;;;0.10;0.10;;;;;;;-145.06;100.00;39840.53;10443946;28;20470;-66
2023/08/17 16:07:17;;;;;;;0.10;0.10;;;;;;;-145.06;100.00;39846.59;10441498;28;20455;-66
2023/08/17 16:12:17;;;;;;;0.10;0.10;;;;;;;-145.06;100.00;39854.66;10423403;28;20017;-65
2023/08/17 16:17:18;;;;;;;0.10;0.10;;;;;;;-145.06;100.00;39832.47;10444089;28;20263;-65
2023/08/17 16:22:18;;;;;;;0.10;0.10;;;;;;;-145.06;100.00;39828.44;10450247;28;20280;-65
2023/08/17 16:27:18;;;;;;;0.10;0.10;;;;;;;-145.06;100.00;39832.47;10445560;28;20021;-66
2023/08/17 16:32:19;;;;;;;0.00;0.00;;;;;;;-145.06;100.00;39854.66;10441647;28;20013;-67
2023/08/17 16:37:19;;;;;;;0.10;0.10;;;;;;;-145.06;100.00;39790.09;10450894;28;20017;-68
2023/08/17 16:42:19;;;;;;;0.10;0.10;;;;;;;-145.06;100.00;39822.38;10449356;28;20025;-67
2023/08/17 16:47:21;;;;;;;0.10;0.10;;;;;;;-145.06;100.00;39810.28;10432261;28;20039;-65
2023/08/17 16:52:21;;;;;;;0.10;0.10;;;;;;;-145.06;100.00;39820.34;10430460;28;20021;-66
2023/08/17 16:57:22;;;;;;;0.00;0.00;;;;;;;-145.06;100.00;39818.34;10424963;28;20029;-65
2023/08/17 17:02:23;;;;;;;0.10;0.10;;;;;;;-145.06;100.00;39810.28;10440252;28;20033;-67
2023/08/17 17:07:23;;;;;;;0.10;0.10;;;;;;;-145.06;100.00;39818.34;10433386;28;20036;-67
2023/08/17 17:12:24;;;;;;;0.10;0.10;;;;;;;-145.06;100.00;39814.31;10438502;28;20017;-66
2023/08/17 17:17:24;;;;;;;0.00;0.00;;;;;;;-145.06;100.00;39810.28;10434341;28;20017;-66
2023/08/17 17:22:26;;;;;;;0.10;0.10;;;;;;;-145.06;100.00;39806.22;10447987;28;20350;-66
2023/08/17 17:27:26;;;;;;;0.00;0.00;;;;;;;-145.06;100.00;39800.19;10426765;28;20033;-66
2023/08/17 17:32:26;;;;;;;0.05;0.05;;;;;;;-145.06;100.00;39802.19;10427188;28;20025;-66
2023/08/17 17:37:27;;;;;;;0.00;0.00;;;;;;;-145.06;100.00;39794.13;10443286;28;20207;-66
2023/08/17 17:42:27;;;;;;;0.10;0.10;;;;;;;-145.06;100.00;39814.31;10433952;28;20112;-66
2023/08/17 17:47:27;;;;;;;0.10;0.10;;;;;;;-145.06;100.00;39836.50;10438241;28;20032;-65
2023/08/17 17:52:28;;;;;;;0.10;0.10;;;;;;;-145.06;100.00;39822.38;10439837;28;20106;-65
2023/08/17 17:57:28;;;;;;;0.10;0.10;;;;;;;-145.06;100.00;39822.38;10439164;28;20074;-66
2023/08/17 18:02:30;;;;;;;0.10;0.10;;;;;;;-145.06;100.00;39842.56;10438873;28;20025;-65
2023/08/17 18:07:30;;;;;;;0.10;0.10;;;;;;;-145.06;100.00;39812.28;10441493;28;20461;-66
2023/08/17 18:12:32;;;;;;;0.10;0.10;;;;;;;-145.06;100.00;39836.50;10444413;28;20024;-66
2023/08/17 18:17:32;;;;;;;0.10;0.10;;;;;;;-145.06;100.00;39836.50;10441791;28;20028;-66
2023/08/17 18:22:32;;;;;;;0.10;0.10;;;;;;;-145.06;100.00;39838.53;10440933;28;20029;-65
2023/08/17 18:27:36;;;;;;;0.00;0.00;;;;;;;-145.06;100.00;39838.53;10437656;28;20112;-66
2023/08/17 18:32:38;;;;;;;0.10;0.10;;;;;;;-145.06;100.00;39848.59;10408641;28;20162;-66
2023/08/17 18:37:38;;;;;;;0.10;0.10;;;;;;;-145.06;100.00;39852.66;10430240;28;20037;-66
2023/08/17 18:42:39;;;;;;;0.10;0.10;;;;;;;-145.06;100.00;39806.22;10442154;28;20025;-65
2023/08/17 18:47:39;;;;;;;0.10;0.10;;;;;;;-145.06;100.00;39832.47;10446180;28;20112;-66
2023/08/17 18:52:40;;;;;;;0.10;0.10;;;;;;;-145.06;100.00;39844.56;10444674;28;20531;-65
2023/08/17 18:57:40;;;;;;;0.10;0.10;;;;;;;-145.06;100.00;39826.41;10434181;28;20478;-66
2023/08/17 19:02:42;;;;;;;0.10;0.10;;;;;;;-145.06;100.00;39832.47;10445127;28;20017;-66
2023/08/17 19:07:42;;;;;;;0.10;0.10;;;;;;;-145.06;100.00;39840.53;10444795;28;20029;-66
2023/08/17 19:12:42;;;;;;;0.10;0.10;;;;;;;-145.06;100.00;39850.63;10445325;28;20029;-66
2023/08/17 19:17:43;;;;;;;0.10;0.10;;;;;;;-145.06;100.00;39810.28;10439385;28;20397;-65
2023/08/17 19:22:43;;;;;;;0.00;0.00;;;;;;;-145.06;100.00;39834.47;10444474;28;20025;-65
2023/08/17 19:27:44;;;;;;;0.00;0.00;;;;;;;-145.06;100.00;39838.53;10429045;28;20033;-65
2023/08/17 19:32:44;;;;;;;0.03;0.03;;;;;;;-145.06;100.00;39802.19;10440626;28;20422;-65
2023/08/17 19:37:44;;;;;;;0.10;0.10;;;;;;;-145.06;100.00;39816.31;10439641;28;20024;-66
2023/08/17 19:42:44;;;;;;;0.10;0.10;;;;;;;-145.06;100.00;39818.34;10444400;28;20025;-65
2023/08/17 19:47:45;;;;;;;0.10;0.10;;;;;;;-145.06;100.00;39822.38;10426263;28;20470;-65
2023/08/17 19:52:45;;;;;;;0.10;0.10;;;;;;;-145.06;100.00;39836.50;10441575;28;20108;-65
2023/08/17 19:57:46;;;;;;;0.10;0.10;;;;;;;-145.06;100.00;39798.16;10417445;28;20272;-64
2023/08/17 20:02:46;;;;;;;0.10;0.10;;;;;;;-145.06;100.00;39800.19;10436336;28;20121;-65
2023/08/17 20:07:46;;;;;;;0.10;0.10;;;;;;;-145.06;100.00;39836.50;10428688;28;20017;-66
2023/08/17 20:12:47;;;;;;;0.10;0.10;;;;;;;-145.06;100.00;39802.19;10443223;28;20627;-65
2023/08/17 20:17:47;;;;;;;0.10;0.10;;;;;;;-145.06;100.00;39800.19;10448889;28;20255;-65
2023/08/17 20:22:48;;;;;;;0.10;0.10;;;;;;;-145.06;100.00;39773.94;10440705;28;20478;-65
2023/08/17 20:27:49;;;;;;;0.10;0.10;;;;;;;-145.06;100.00;39792.09;10441219;28;20021;-65
2023/08/17 20:32:49;;;;;;;0.10;0.10;;;;;;;-145.06;100.00;39812.28;10444444;28;20033;-66
2023/08/17 20:37:49;;;;;;;0.10;0.10;;;;;;;-145.06;100.00;39812.28;10449650;28;20146;-66
2023/08/17 20:42:50;;;;;;;0.10;0.10;;;;;;;-145.06;100.00;39775.97;10444607;28;20028;-66
2023/08/17 20:47:50;;;;;;;0.10;0.10;;;;;;;-145.06;100.00;39810.28;10441514;28;20024;-66
2023/08/17 20:52:50;;;;;;;0.10;0.10;;;;;;;-145.06;100.00;39780.00;10448692;28;20029;-66
2023/08/17 20:57:51;;;;;;;0.10;0.10;;;;;;;-145.06;100.00;39782.00;10444706;28;20428;-66
2023/08/17 21:02:51;;;;;;;0.10;0.10;;;;;;;-145.06;100.00;39790.09;10442556;28;20031;-65
2023/08/17 21:07:51;;;;;;;0.10;0.10;;;;;;;-145.06;100.00;39794.13;10440169;28;20064;-65
2023/08/17 21:12:51;;;;;;;0.10;0.10;;;;;;;-145.06;100.00;39753.75;10437368;28;20033;-64
2023/08/17 21:17:52;;;;;;;0.10;0.10;;;;;;;-145.06;100.00;39767.88;10448647;28;20081;-66
2023/08/17 21:22:53;;;;;;;0.10;0.10;;;;;;;-145.06;100.00;39775.97;10439334;28;20025;-66
2023/08/17 21:27:54;;;;;;;0.10;0.10;;;;;;;-145.06;100.00;39739.63;10437950;28;20130;-66
2023/08/17 21:32:54;;;;;;;0.10;0.10;;;;;;;-145.06;100.00;39753.75;10451643;28;20112;-65
2023/08/17 21:37:54;;;;;;;0.10;0.10;;;;;;;-145.06;100.00;39761.84;10442466;28;20489;-65
2023/08/17 21:42:55;;;;;;;0.10;0.10;;;;;;;-145.06;100.00;39751.75;10445845;28;20471;-65
2023/08/17 21:47:55;;;;;;;0.10;0.10;;;;;;;-145.06;100.00;39749.72;10438366;28;20445;-65
2023/08/17 21:52:57;;;;;;;0.10;0.10;;;;;;;-145.06;100.00;39735.59;10445120;28;20033;-65
2023/08/17 21:57:57;;;;;;;0.10;0.10;;;;;;;-145.06;100.00;39737.63;10438809;28;21330;-66
2023/08/17 22:02:58;;;;;;;0.10;0.10;;;;;;;-145.06;100.00;39749.72;10447586;28;20463;-66
2023/08/17 22:07:59;;;;;;;0.10;0.10;;;;;;;-145.06;100.00;39719.47;10442151;28;20500;-65
2023/08/17 22:12:59;;;;;;;0.10;0.10;;;;;;;-145.06;100.00;39721.47;10446218;28;20031;-66
2023/08/17 22:18:00;;;;;;;0.00;0.00;;;;;;;-145.06;100.00;39745.69;10429893;28;20031;-65
2023/08/17 22:23:00;;;;;;;0.10;0.10;;;;;;;-145.06;100.00;39679.09;10441500;28;20043;-65
2023/08/17 22:28:00;;;;;;;0.10;0.10;;;;;;;-145.06;100.00;39741.66;10429066;28;20536;-65
2023/08/17 22:33:01;;;;;;;0.10;0.10;;;;;;;-145.06;100.00;39743.69;10440184;28;20021;-65
2023/08/17 22:38:01;;;;;;;0.10;0.10;;;;;;;-145.06;100.00;39723.50;10445495;28;20275;-66
2023/08/17 22:43:01;;;;;;;0.10;0.10;;;;;;;-145.06;100.00;39727.53;10445632;28;20287;-65
2023/08/17 22:48:02;;;;;;;0.10;0.10;;;;;;;-145.06;100.00;39707.34;10420120;28;20017;-65
2023/08/17 22:53:02;;;;;;;0.00;0.00;;;;;;;-145.06;100.00;39719.47;10445858;28;20107;-66
2023/08/17 22:58:03;;;;;;;0.10;0.10;;;;;;;-145.06;100.00;39685.16;10429086;28;20029;-66
2023/08/17 23:03:03;;;;;;;0.00;0.00;;;;;;;-145.06;100.00;39719.47;10437441;28;20021;-66
2023/08/17 23:08:04;;;;;;;0.10;0.10;;;;;;;-145.06;100.00;39747.72;10439567;28;20028;-66
2023/08/17 23:13:05;;;;;;;0.10;0.10;;;;;;;-145.06;100.00;39753.75;10439187;28;20191;-66
2023/08/17 23:18:06;;;;;;;0.10;0.10;;;;;;;-145.06;100.00;39759.81;10439338;28;20377;-64
2023/08/17 23:23:06;;;;;;;0.00;0.00;;;;;;;-145.06;100.00;39753.75;10433074;28;20017;-65
2023/08/17 23:28:06;;;;;;;0.10;0.10;;;;;;;-145.06;100.00;39745.69;10432725;28;20079;-65
2023/08/17 23:33:08;;;;;;;0.10;0.10;;;;;;;-145.06;100.00;39775.97;10442297;28;20446;-65
2023/08/17 23:38:09;;;;;;;0.10;0.10;;;;;;;-145.06;100.00;39743.69;10443877;28;20078;-65
2023/08/17 23:43:09;;;;;;;0.10;0.10;;;;;;;-145.06;100.00;39719.47;10420889;28;20446;-65
2023/08/17 23:48:10;;;;;;;0.10;0.10;;;;;;;-145.06;100.00;39725.50;10445071;28;20036;-65
2023/08/17 23:53:10;;;;;;;0.10;0.10;;;;;;;-145.06;100.00;39715.44;10442922;28;20017;-65
2023/08/17 23:58:10;;;;;;;0.10;0.10;;;;;;;-145.06;100.00;39713.41;10438538;28;20021;-65
